Strona główna
METAR-TAF:

METAR-TAF

Lotnisko :

Port lotniczy Nîmes-Garons

Nîmes, Francja

Szerokość geograficzna: 43-45N, Długość geograficzna: 004-25E, wysokość: 94 m

Aktualna obserwacja pogody

Raport powstał 21 minut temu, godzina 11:30 UTC
Wiatr 19 kt od północ
Temperatura 10°C
Wilgotność 40%
Ciśnienie 1024 hPa
Widzialność 10 km lub więcej
Brak chmur poniżej 1500 m i brak chmur cumulonimbus

METAR: LFTW 101130Z AUTO 35019KT CAVOK 10/M03 Q1024

czas: 12:51 (11:51 UTC)

Prognoza

Raport powstał 9 godziny i 51 minut temu, godzina 02:00 UTC
Prognoza ważna od 10 godzina 03 UTC do 11 godzina 03 UTC
Wiatr 10 kt od północno-północny zachód w porywach dochodzący do 20 kt
Widzialność 10 km lub więcej
Brak chmur poniżej 1500 m i brak chmur cumulonimbus
Przejściowo
od 10 godzina 04 UTC do 10 godzina 14 UTC
Wiatr 20 kt od północno-północny zachód w porywach dochodzący do 30 kt
Stopniowe zmiany
od 10 godzina 17 UTC do 10 godzina 19 UTC
Wiatr 5 kt od północ

TAF: LFTW 100200Z 1003/1103 33010G20KT CAVOK TEMPO 1004/1014 33020G30KT BECMG 1017/1019 36005KT

Obserwacja i prognoza pogody dla ponad 4000 lotnisk (raport METAR i TAF).

Dostępne stacje oznaczono żółtymi i czerwonymi punktami na mapie.

Najedź kursorem aby zobaczyć nazwę stacji.

Kliknij aby zobaczyć obserwacje i prognozy pogody.

Aby zmienić mapę: kliknij na zielony przycisk z czarnym krzyżykiem, aby powiększyć; na zielony przycisk z myślnikiem, aby pomniejszyć; na zielone strzałki, aby przejść do map sąsiednich.


METAR-TAF: